Time,TemperatureF,DewpointF,PressureIn,WindDirection,WindDirectionDegrees,WindSpeedMPH,WindSpeedGustMPH,Humidity,HourlyPrecipIn,Conditions,Clouds,dailyrainin,SoftwareType,DateUTC
2013-09-08 00:03:00,73.0,54.0,30.18,ENE,69,0.0,4.0,52,0.00,,,0.00,,2013-09-08 05:03:00,
2013-09-08 00:23:00,72.0,54.0,30.17,ENE,59,0.0,3.0,53,0.00,,,0.00,,2013-09-08 05:23:00,
2013-09-08 00:34:00,72.0,54.0,30.17,ENE,59,0.0,3.0,53,0.00,,,0.00,,2013-09-08 05:34:00,
2013-09-08 00:52:00,70.0,54.0,30.18,ENE,59,0.0,1.0,57,0.00,,,0.00,,2013-09-08 05:52:00,
2013-09-08 01:03:00,70.0,54.0,30.18,ENE,59,0.0,1.0,57,0.00,,,0.00,,2013-09-08 06:03:00,
2013-09-08 01:13:00,70.0,54.0,30.18,ENE,59,0.0,1.0,57,0.00,,,0.00,,2013-09-08 06:13:00,
2013-09-08 01:21:00,69.0,55.0,30.17,East,88,0.0,1.0,60,0.00,,,0.00,,2013-09-08 06:21:00,
2013-09-08 01:33:00,69.0,55.0,30.17,East,88,0.0,1.0,60,0.00,,,0.00,,2013-09-08 06:33:00,
2013-09-08 01:53:00,68.0,55.0,30.17,East,88,0.0,0.0,63,0.00,,,0.00,,2013-09-08 06:53:00,
2013-09-08 02:01:00,68.0,55.0,30.17,East,88,0.0,0.0,63,0.00,,,0.00,,2013-09-08 07:01:00,
2013-09-08 02:12:00,68.0,55.0,30.17,East,88,0.0,0.0,63,0.00,,,0.00,,2013-09-08 07:12:00,
2013-09-08 02:23:00,68.0,55.0,30.16,ESE,120,0.0,1.0,64,0.00,,,0.00,,2013-09-08 07:23:00,
2013-09-08 02:32:00,68.0,55.0,30.16,ESE,120,0.0,1.0,64,0.00,,,0.00,,2013-09-08 07:32:00,
2013-09-08 02:52:00,69.0,56.0,30.16,ENE,78,1.0,3.0,64,0.00,,,0.00,,2013-09-08 07:52:00,
2013-09-08 03:02:00,69.0,56.0,30.16,ENE,78,1.0,3.0,64,0.00,,,0.00,,2013-09-08 08:02:00,
2013-09-08 03:22:00,68.0,55.0,30.15,ESE,102,0.0,1.0,63,0.00,,,0.00,,2013-09-08 08:22:00,
2013-09-08 03:32:00,68.0,55.0,30.15,ESE,102,0.0,1.0,63,0.00,,,0.00,,2013-09-08 08:32:00,
2013-09-08 03:52:00,67.0,56.0,30.15,ESE,103,0.0,0.0,68,0.00,,,0.00,,2013-09-08 08:52:00,
2013-09-08 04:02:00,67.0,56.0,30.15,ESE,103,0.0,0.0,68,0.00,,,0.00,,2013-09-08 09:02:00,
2013-09-08 04:22:00,67.0,56.0,30.15,ESE,103,0.0,0.0,68,0.00,,,0.00,,2013-09-08 09:22:00,
2013-09-08 04:33:00,67.0,56.0,30.15,ESE,103,0.0,0.0,68,0.00,,,0.00,,2013-09-08 09:33:00,
2013-09-08 04:54:00,66.0,56.0,30.13,NNE,23,0.0,2.0,70,0.00,,,0.00,,2013-09-08 09:54:00,
2013-09-08 05:03:00,66.0,56.0,30.13,NNE,23,0.0,2.0,70,0.00,,,0.00,,2013-09-08 10:03:00,
2013-09-08 05:12:00,66.0,56.0,30.13,NNE,23,0.0,2.0,70,0.00,,,0.00,,2013-09-08 10:12:00,
2013-09-08 05:23:00,64.0,55.0,30.13,NNE,22,0.0,1.0,73,0.00,,,0.00,,2013-09-08 10:23:00,
2013-09-08 05:33:00,64.0,55.0,30.13,NNE,22,0.0,1.0,73,0.00,,,0.00,,2013-09-08 10:33:00,
2013-09-08 05:53:00,64.0,56.0,30.13,NW,315,1.0,2.0,75,0.00,,,0.00,,2013-09-08 10:53:00,
2013-09-08 06:02:00,64.0,56.0,30.13,NW,315,1.0,2.0,75,0.00,,,0.00,,2013-09-08 11:02:00,
2013-09-08 06:12:00,64.0,56.0,30.13,NW,315,1.0,2.0,75,0.00,,,0.00,,2013-09-08 11:12:00,
2013-09-08 06:21:00,63.0,55.0,30.13,NW,315,0.0,1.0,76,0.00,,,0.00,,2013-09-08 11:21:00,
2013-09-08 06:33:00,63.0,55.0,30.13,NW,315,0.0,1.0,76,0.00,,,0.00,,2013-09-08 11:33:00,
2013-09-08 06:52:00,62.0,55.0,30.12,NW,314,0.0,3.0,77,0.00,,,0.00,,2013-09-08 11:52:00,
2013-09-08 07:02:00,62.0,55.0,30.12,NW,314,0.0,3.0,77,0.00,,,0.00,,2013-09-08 12:02:00,
2013-09-08 07:12:00,62.0,55.0,30.12,NW,314,0.0,3.0,77,0.00,,,0.00,,2013-09-08 12:12:00,
2013-09-08 07:22:00,62.0,54.0,30.14,NW,314,0.0,1.0,76,0.00,,,0.00,,2013-09-08 12:22:00,
2013-09-08 07:32:00,62.0,54.0,30.14,NW,314,0.0,1.0,76,0.00,,,0.00,,2013-09-08 12:32:00,
2013-09-08 07:52:00,61.0,55.0,30.14,NW,314,0.0,1.0,80,0.00,,,0.00,,2013-09-08 12:52:00,
2013-09-08 08:12:00,61.0,55.0,30.14,NW,314,0.0,1.0,80,0.00,,,0.00,,2013-09-08 13:12:00,
2013-09-08 08:22:00,62.0,55.0,30.15,NW,315,0.0,1.0,79,0.00,,,0.00,,2013-09-08 13:22:00,
2013-09-08 08:52:00,63.0,56.0,30.15,NW,315,0.0,1.0,79,0.00,,,0.00,,2013-09-08 13:52:00,
2013-09-08 09:00:00,69.0,58.0,30.14,NW,314,0.0,1.0,69,0.00,,,0.00,,2013-09-08 14:00:00,
2013-09-08 09:02:00,63.0,56.0,30.15,NW,315,0.0,1.0,79,0.00,,,0.00,,2013-09-08 14:02:00,
2013-09-08 09:11:00,63.0,56.0,30.15,NW,315,0.0,1.0,79,0.00,,,0.00,,2013-09-08 14:11:00,
2013-09-08 09:52:00,69.0,58.0,30.14,NW,314,0.0,1.0,69,0.00,,,0.00,,2013-09-08 14:52:00,
2013-09-08 10:23:00,75.0,59.0,30.15,NE,46,4.0,7.0,58,0.00,,,0.00,,2013-09-08 15:23:00,
2013-09-08 10:34:00,75.0,59.0,30.15,NE,46,4.0,7.0,58,0.00,,,0.00,,2013-09-08 15:34:00,
2013-09-08 10:55:00,77.0,59.0,30.14,ESE,110,4.0,9.0,54,0.00,,,0.00,,2013-09-08 15:55:00,
2013-09-08 11:04:00,77.0,59.0,30.14,ESE,110,4.0,9.0,54,0.00,,,0.00,,2013-09-08 16:04:00,
2013-09-08 11:23:00,79.0,60.0,30.14,ESE,107,1.0,7.0,52,0.00,,,0.00,,2013-09-08 16:23:00,
2013-09-08 11:34:00,79.0,60.0,30.14,ESE,107,1.0,7.0,52,0.00,,,0.00,,2013-09-08 16:34:00,
2013-09-08 11:53:00,78.0,60.0,30.13,East,86,4.0,10.0,54,0.00,,,0.00,,2013-09-08 16:53:00,
2013-09-08 12:03:00,78.0,60.0,30.13,East,86,4.0,10.0,54,0.00,,,0.00,,2013-09-08 17:03:00,
2013-09-08 12:23:00,77.0,59.0,30.13,ESE,117,6.0,12.0,54,0.00,,,0.00,,2013-09-08 17:23:00,
2013-09-08 12:34:00,77.0,59.0,30.13,ESE,117,6.0,12.0,54,0.00,,,0.00,,2013-09-08 17:34:00,
2013-09-08 12:53:00,81.0,59.0,30.12,East,94,6.0,13.0,47,0.00,,,0.00,,2013-09-08 17:53:00,
2013-09-08 13:02:00,81.0,59.0,30.12,East,94,6.0,13.0,47,0.00,,,0.00,,2013-09-08 18:02:00,
2013-09-08 13:22:00,84.0,58.0,30.11,South,183,2.0,14.0,42,0.00,,,0.00,,2013-09-08 18:22:00,
2013-09-08 13:32:00,84.0,58.0,30.11,South,183,2.0,14.0,42,0.00,,,0.00,,2013-09-08 18:32:00,
2013-09-08 13:52:00,85.0,58.0,30.12,SE,138,9.0,13.0,40,0.00,,,0.00,,2013-09-08 18:52:00,
2013-09-08 14:01:00,85.0,58.0,30.12,SE,138,9.0,13.0,40,0.00,,,0.00,,2013-09-08 19:01:00,
2013-09-08 14:12:00,85.0,58.0,30.12,SE,138,9.0,13.0,40,0.00,,,0.00,,2013-09-08 19:12:00,
2013-09-08 14:22:00,81.0,56.0,30.11,East,82,8.0,13.0,43,0.00,,,0.00,,2013-09-08 19:22:00,
2013-09-08 14:32:00,81.0,56.0,30.11,East,82,8.0,13.0,43,0.00,,,0.00,,2013-09-08 19:32:00,
2013-09-08 14:52:00,85.0,57.0,30.10,ESE,109,5.0,12.0,38,0.00,,,0.00,,2013-09-08 19:52:00,
2013-09-08 15:03:00,85.0,57.0,30.10,ESE,109,5.0,12.0,38,0.00,,,0.00,,2013-09-08 20:03:00,
2013-09-08 15:22:00,86.0,57.0,30.09,East,86,6.0,16.0,38,0.00,,,0.00,,2013-09-08 20:22:00,
2013-09-08 15:32:00,86.0,57.0,30.09,East,86,6.0,16.0,38,0.00,,,0.00,,2013-09-08 20:32:00,
2013-09-08 15:53:00,88.0,56.0,30.07,South,180,3.0,14.0,34,0.00,,,0.00,,2013-09-08 20:53:00,
2013-09-08 16:02:00,88.0,56.0,30.07,South,180,3.0,14.0,34,0.00,,,0.00,,2013-09-08 21:02:00,
2013-09-08 16:22:00,84.0,57.0,30.03,SE,137,1.0,12.0,40,0.00,,,0.00,,2013-09-08 21:22:00,
2013-09-08 16:34:00,84.0,57.0,30.03,SE,137,1.0,12.0,40,0.00,,,0.00,,2013-09-08 21:34:00,
2013-09-08 16:54:00,80.0,57.0,30.04,West,277,6.0,11.0,45,0.00,,,0.00,,2013-09-08 21:54:00,
2013-09-08 17:04:00,80.0,57.0,30.04,West,277,6.0,11.0,45,0.00,,,0.00,,2013-09-08 22:04:00,
2013-09-08 18:22:00,63.0,58.0,30.06,WSW,238,6.0,13.0,85,0.55,,,0.56,,2013-09-08 23:22:00,
2013-09-08 18:34:00,63.0,58.0,30.06,WSW,238,6.0,13.0,85,0.55,,,0.56,,2013-09-08 23:34:00,
2013-09-08 18:52:00,65.0,58.0,30.06,WNW,299,3.0,6.0,79,0.13,,,0.57,,2013-09-08 23:52:00,
2013-09-08 19:02:00,65.0,58.0,30.06,WNW,299,3.0,6.0,79,0.13,,,0.57,,2013-09-09 00:02:00,
2013-09-08 19:11:00,65.0,58.0,30.06,WNW,299,3.0,6.0,79,0.13,,,0.57,,2013-09-09 00:11:00,
2013-09-08 19:22:00,66.0,61.0,30.06,NNW,332,0.0,1.0,84,0.01,,,0.57,,2013-09-09 00:22:00,
2013-09-08 19:32:00,66.0,61.0,30.06,NNW,332,0.0,1.0,84,0.01,,,0.57,,2013-09-09 00:32:00,
2013-09-08 19:52:00,66.0,60.0,30.06,NW,313,0.0,0.0,82,0.00,,,0.57,,2013-09-09 00:52:00,
2013-09-08 20:01:00,66.0,60.0,30.06,NW,313,0.0,0.0,82,0.00,,,0.57,,2013-09-09 01:01:00,
2013-09-08 20:21:00,67.0,61.0,30.06,NW,313,0.0,1.0,82,0.00,,,0.57,,2013-09-09 01:21:00,
2013-09-08 20:32:00,67.0,61.0,30.06,NW,313,0.0,1.0,82,0.00,,,0.57,,2013-09-09 01:32:00,
2013-09-08 20:52:00,67.0,62.0,30.07,NW,313,0.0,0.0,85,0.00,,,0.57,,2013-09-09 01:52:00,
2013-09-08 21:02:00,67.0,62.0,30.07,NW,313,0.0,0.0,85,0.00,,,0.57,,2013-09-09 02:02:00,
2013-09-08 21:22:00,67.0,62.0,30.07,NW,315,2.0,3.0,84,0.00,,,0.57,,2013-09-09 02:22:00,
2013-09-08 21:32:00,67.0,62.0,30.07,NW,315,2.0,3.0,84,0.00,,,0.57,,2013-09-09 02:32:00,
2013-09-08 21:42:00,67.0,62.0,30.07,NW,315,2.0,3.0,84,0.00,,,0.57,,2013-09-09 02:42:00,
2013-09-08 21:53:00,68.0,60.0,30.08,NNE,22,2.0,4.0,76,0.00,,,0.57,,2013-09-09 02:53:00,
2013-09-08 22:02:00,68.0,60.0,30.08,NNE,22,2.0,4.0,76,0.00,,,0.57,,2013-09-09 03:02:00,
2013-09-08 22:22:00,69.0,60.0,30.06,East,83,0.0,3.0,74,0.00,,,0.57,,2013-09-09 03:22:00,
2013-09-08 22:34:00,69.0,60.0,30.06,East,83,0.0,3.0,74,0.00,,,0.57,,2013-09-09 03:34:00,
2013-09-08 22:55:00,69.0,61.0,30.07,East,96,0.0,3.0,75,0.00,,,0.57,,2013-09-09 03:55:00,
2013-09-08 23:03:00,69.0,61.0,30.07,East,96,0.0,3.0,75,0.00,,,0.57,,2013-09-09 04:03:00,
2013-09-08 23:14:00,69.0,61.0,30.07,East,96,0.0,3.0,75,0.00,,,0.57,,2013-09-09 04:14:00,
2013-09-08 23:24:00,69.0,61.0,30.08,ESE,106,2.0,6.0,75,0.00,,,0.57,,2013-09-09 04:24:00,
2013-09-08 23:33:00,69.0,61.0,30.08,ESE,106,2.0,6.0,75,0.00,,,0.57,,2013-09-09 04:33:00,
2013-09-08 23:54:00,68.0,60.0,30.09,East,82,4.0,7.0,75,0.00,,,0.57,,2013-09-09 04:54:00,